createdAt,value
2022-11-16T00:01:45.261Z,93436.78
2022-11-16T00:04:12.484Z,93430.91
2022-11-16T00:06:40.028Z,93435.94
2022-11-16T00:09:22.335Z,93411.31
2022-11-16T00:11:56.604Z,93430.19
2022-11-16T00:14:26.432Z,93421.88
2022-11-16T00:16:53.213Z,93424.41
2022-11-16T00:19:20.221Z,93405.19
2022-11-16T00:21:47.160Z,93402.47
2022-11-16T00:24:16.261Z,93408.94
2022-11-16T00:26:43.784Z,93401.25
2022-11-16T00:29:21.209Z,93400.09
2022-11-16T00:31:48.472Z,93404.09
2022-11-16T00:34:16.181Z,93392.16
2022-11-16T00:36:43.433Z,93395.66
2022-11-16T00:39:17.629Z,93388.00
2022-11-16T00:41:45.078Z,93384.38
2022-11-16T00:44:12.360Z,93382.75
2022-11-16T00:46:40.057Z,93379.94
2022-11-16T00:49:07.078Z,93373.00
2022-11-16T00:51:36.122Z,93382.38
2022-11-16T00:54:03.993Z,93381.19
2022-11-16T00:56:30.965Z,93360.94
2022-11-16T00:58:57.712Z,93382.75
2022-11-16T01:01:24.694Z,93381.56
2022-11-16T01:03:51.862Z,93388.00
2022-11-16T01:06:18.772Z,93376.66
2022-11-16T01:08:45.827Z,93385.19
2022-11-16T01:11:36.192Z,93372.22
2022-11-16T01:14:06.776Z,93389.88
2022-11-16T01:16:33.810Z,93385.63
2022-11-16T01:19:00.636Z,93384.63
2022-11-16T01:21:27.918Z,93363.59
2022-11-16T01:23:57.134Z,93388.50
2022-11-16T01:26:25.124Z,93385.06
2022-11-16T01:28:52.497Z,93361.34
2022-11-16T01:31:19.589Z,93384.44
2022-11-16T01:33:46.350Z,93371.47
2022-11-16T01:36:15.094Z,93384.44
2022-11-16T01:38:46.972Z,93393.41
2022-11-16T01:41:24.001Z,93367.22
2022-11-16T01:43:59.996Z,93389.78
2022-11-16T01:46:28.376Z,93378.94
2022-11-16T01:49:12.487Z,93388.25
2022-11-16T01:51:42.969Z,93383.00
2022-11-16T01:54:13.258Z,93375.91
2022-11-16T01:56:44.721Z,93380.63
2022-11-16T01:59:13.546Z,93390.94
2022-11-16T02:01:40.897Z,93357.66
2022-11-16T02:04:11.400Z,93362.97
2022-11-16T02:06:49.312Z,93383.47
2022-11-16T02:09:58.415Z,93379.56
2022-11-16T02:12:52.501Z,93382.00
2022-11-16T02:15:42.733Z,93367.16
2022-11-16T02:18:41.423Z,93390.03
2022-11-16T02:21:29.618Z,93372.84
2022-11-16T02:24:43.257Z,93389.25
2022-11-16T02:27:34.349Z,93388.63
2022-11-16T02:30:03.392Z,93373.00
2022-11-16T02:32:37.358Z,93384.00
2022-11-16T02:35:19.280Z,93380.75
2022-11-16T02:37:54.640Z,93392.31
2022-11-16T02:40:24.298Z,93380.00
2022-11-16T02:43:10.198Z,93375.91
2022-11-16T02:45:45.997Z,93374.25
2022-11-16T02:48:20.417Z,93385.19
2022-11-16T02:50:49.068Z,93398.13
2022-11-16T02:53:15.963Z,93394.03
2022-11-16T02:55:42.709Z,93397.72
2022-11-16T02:58:14.986Z,93388.88
2022-11-16T03:00:54.915Z,93378.25
2022-11-16T03:03:24.512Z,93392.94
2022-11-16T03:05:58.598Z,93365.66
2022-11-16T03:08:31.679Z,93366.41
2022-11-16T03:11:22.996Z,93374.53
2022-11-16T03:13:51.256Z,93368.84
2022-11-16T03:16:28.552Z,93364.28
2022-11-16T03:18:58.386Z,93354.91
2022-11-16T03:21:37.458Z,93347.66
2022-11-16T03:24:05.252Z,93344.69
2022-11-16T03:26:49.756Z,93334.75
2022-11-16T03:29:31.109Z,93329.31
2022-11-16T03:32:12.953Z,93342.72
2022-11-16T03:34:49.956Z,93329.00
2022-11-16T03:37:16.849Z,93331.63
2022-11-16T03:39:44.862Z,93344.38
2022-11-16T03:42:16.688Z,93341.13
2022-11-16T03:44:46.777Z,93345.34
2022-11-16T03:47:13.919Z,93348.84
2022-11-16T03:49:45.678Z,93358.47
2022-11-16T03:52:17.609Z,93352.72
2022-11-16T03:54:44.846Z,93356.00
2022-11-16T03:57:15.714Z,93348.59
2022-11-16T03:59:46.008Z,93355.47
2022-11-16T04:02:13.449Z,93349.00
2022-11-16T04:04:58.921Z,93362.19
2022-11-16T04:07:45.108Z,93373.06
2022-11-16T04:10:30.923Z,93371.28
2022-11-16T04:13:17.233Z,93369.06
2022-11-16T04:16:02.618Z,93381.72
2022-11-16T04:18:48.214Z,93366.75
2022-11-16T04:21:56.771Z,93377.72
2022-11-16T04:24:27.442Z,93375.53
2022-11-16T04:27:23.049Z,93367.28
2022-11-16T04:29:49.945Z,93357.78
2022-11-16T04:32:35.680Z,93368.06
2022-11-16T04:35:21.041Z,93378.19
2022-11-16T04:37:50.497Z,93377.63
2022-11-16T04:40:22.040Z,93373.00
2022-11-16T04:42:54.291Z,93367.38
2022-11-16T04:45:40.150Z,93368.63
2022-11-16T04:48:07.535Z,93351.03
2022-11-16T04:50:34.759Z,93363.63
2022-11-16T04:53:01.691Z,93363.78
2022-11-16T04:55:28.456Z,93375.25
2022-11-16T04:57:55.619Z,93366.59
2022-11-16T05:00:22.871Z,93368.63
2022-11-16T05:02:49.725Z,93363.00
2022-11-16T05:05:16.849Z,93367.84
2022-11-16T05:07:44.016Z,93354.09
2022-11-16T05:10:11.781Z,93358.59
2022-11-16T05:12:39.031Z,93362.16
2022-11-16T05:15:07.280Z,93369.47
2022-11-16T05:17:34.368Z,93366.59
2022-11-16T05:20:19.888Z,93361.31
2022-11-16T05:22:56.539Z,93359.69
2022-11-16T05:25:23.302Z,93357.50
2022-11-16T05:27:50.102Z,93360.38
2022-11-16T05:30:17.213Z,93361.53
2022-11-16T05:32:44.165Z,93358.47
2022-11-16T05:35:10.919Z,93354.00
2022-11-16T05:37:37.684Z,93365.94
2022-11-16T05:40:05.431Z,93357.47
2022-11-16T05:42:32.195Z,93350.34
2022-11-16T05:44:58.900Z,93356.41
2022-11-16T05:47:25.684Z,93362.72
2022-11-16T05:49:52.375Z,93354.59
2022-11-16T05:52:19.149Z,93342.19
2022-11-16T05:54:45.881Z,93360.56
2022-11-16T05:57:12.611Z,93354.25
2022-11-16T05:59:39.341Z,93351.25
2022-11-16T06:02:06.063Z,93363.53
2022-11-16T06:04:33.516Z,93367.56
2022-11-16T06:07:00.293Z,93367.72
2022-11-16T06:09:27.088Z,93357.38
2022-11-16T06:11:53.789Z,93365.06
2022-11-16T06:14:20.543Z,93367.25
2022-11-16T06:16:47.293Z,93371.44
2022-11-16T06:19:13.991Z,93364.50
2022-11-16T06:21:40.808Z,93360.81
2022-11-16T06:24:09.536Z,93367.69
2022-11-16T06:26:37.143Z,93380.19
2022-11-16T06:29:04.865Z,93381.16
2022-11-16T06:31:32.060Z,93382.94
2022-11-16T06:33:58.777Z,93389.78
2022-11-16T06:36:26.552Z,93391.31
2022-11-16T06:38:53.312Z,93372.03
2022-11-16T06:41:20.253Z,93398.47
2022-11-16T06:43:46.932Z,93388.72
2022-11-16T06:46:13.832Z,93384.59
2022-11-16T06:48:40.676Z,93403.56
2022-11-16T06:51:07.466Z,93407.13
2022-11-16T06:53:34.305Z,93407.91
2022-11-16T06:56:06.212Z,93404.84
2022-11-16T06:58:33.885Z,93399.97
2022-11-16T07:01:08.744Z,93406.56
2022-11-16T07:03:35.657Z,93407.31
2022-11-16T07:06:11.666Z,93414.06
2022-11-16T07:08:39.083Z,93407.97
2022-11-16T07:11:09.697Z,93405.44
2022-11-16T07:13:38.679Z,93429.00
2022-11-16T07:16:07.787Z,93417.78
2022-11-16T07:18:37.041Z,93425.66
2022-11-16T07:21:13.749Z,93423.22
2022-11-16T07:23:41.293Z,93430.16
2022-11-16T07:26:10.422Z,93422.03
2022-11-16T07:28:38.351Z,93432.88
2022-11-16T07:31:14.502Z,93434.84
2022-11-16T07:33:41.343Z,93422.03
2022-11-16T07:36:18.665Z,93433.22
2022-11-16T07:38:45.525Z,93440.72
2022-11-16T07:41:16.767Z,93438.91
2022-11-16T07:43:47.230Z,93446.66
2022-11-16T07:46:51.394Z,93446.03
2022-11-16T07:49:13.376Z,93450.63
2022-11-16T07:51:40.114Z,93451.28
2022-11-16T07:54:06.879Z,93455.78
2022-11-16T07:56:33.876Z,93459.03
2022-11-16T07:59:01.619Z,93457.13
2022-11-16T08:01:28.403Z,93466.72
2022-11-16T08:03:55.236Z,93476.53
2022-11-16T08:06:25.852Z,93472.97
2022-11-16T08:08:58.004Z,93467.34
2022-11-16T08:11:26.067Z,93458.13
2022-11-16T08:13:52.840Z,93465.56
2022-11-16T08:16:22.426Z,93464.47
2022-11-16T08:18:49.351Z,93472.75
2022-11-16T08:21:18.531Z,93482.50
2022-11-16T08:23:46.160Z,93481.50
2022-11-16T08:26:16.348Z,93474.34
2022-11-16T08:28:46.167Z,93472.88
2022-11-16T08:31:21.099Z,93469.47
2022-11-16T08:33:51.968Z,93456.00
2022-11-16T08:36:19.188Z,93465.56
2022-11-16T08:38:48.596Z,93469.53
2022-11-16T08:41:17.114Z,93447.84
2022-11-16T08:43:47.117Z,93477.66
2022-11-16T08:46:14.924Z,93449.31
2022-11-16T08:48:42.041Z,93479.38
2022-11-16T08:51:20.828Z,93465.53
2022-11-16T08:53:49.516Z,93446.97
2022-11-16T08:56:18.589Z,93444.22
2022-11-16T08:58:52.517Z,93463.56
2022-11-16T09:01:25.502Z,93462.38
2022-11-16T09:03:53.307Z,93482.91
2022-11-16T09:06:20.752Z,93478.16
2022-11-16T09:08:47.946Z,93469.97
2022-11-16T09:11:18.812Z,93474.28
2022-11-16T09:13:47.677Z,93480.63
2022-11-16T09:16:17.601Z,93480.34
2022-11-16T09:18:48.356Z,93458.50
2022-11-16T09:21:27.424Z,93445.91
2022-11-16T09:23:55.749Z,93473.75
2022-11-16T09:26:23.981Z,93458.00
2022-11-16T09:29:13.373Z,93473.41
2022-11-16T09:31:40.637Z,93459.97
2022-11-16T09:34:07.966Z,93473.66
2022-11-16T09:36:35.371Z,93483.44
2022-11-16T09:39:28.935Z,93467.09
2022-11-16T09:42:44.979Z,93478.94
2022-11-16T09:45:25.388Z,93480.41
2022-11-16T09:47:57.717Z,93458.31
2022-11-16T09:50:42.806Z,93464.00
2022-11-16T09:53:44.516Z,93474.16
2022-11-16T09:56:22.382Z,93470.09
2022-11-16T09:59:18.410Z,93471.50
2022-11-16T10:01:53.005Z,93466.84
2022-11-16T10:04:58.834Z,93469.66
2022-11-16T10:07:41.988Z,93458.94
2022-11-16T10:10:25.797Z,93453.88
2022-11-16T10:13:10.588Z,93453.88
2022-11-16T10:15:53.865Z,93467.88
2022-11-16T10:18:47.534Z,93461.59
2022-11-16T10:21:44.027Z,93456.31
2022-11-16T10:24:26.001Z,93457.50
2022-11-16T10:27:19.262Z,93450.81
2022-11-16T10:30:02.117Z,93453.28
2022-11-16T10:32:44.971Z,93467.66
2022-11-16T10:35:11.891Z,93453.06
2022-11-16T10:37:45.828Z,93448.56
2022-11-16T10:40:29.228Z,93443.50
2022-11-16T10:43:16.038Z,93449.38
2022-11-16T10:46:19.809Z,93451.41
2022-11-16T10:49:07.893Z,93444.88
2022-11-16T10:51:34.894Z,93442.06
2022-11-16T10:54:01.729Z,93444.84
2022-11-16T10:56:32.551Z,93445.41
2022-11-16T10:59:08.170Z,93442.78
2022-11-16T11:01:43.567Z,93442.19
2022-11-16T11:04:24.750Z,93437.94
2022-11-16T11:07:23.770Z,93440.59
2022-11-16T11:09:54.588Z,93435.34
2022-11-16T11:12:40.573Z,93425.47
2022-11-16T11:15:27.686Z,93429.50
2022-11-16T11:18:16.044Z,93427.63
2022-11-16T11:20:47.656Z,93425.84
2022-11-16T11:23:19.209Z,93426.19
2022-11-16T11:25:56.387Z,93425.75
2022-11-16T11:28:38.461Z,93419.94
2022-11-16T11:31:25.936Z,93421.88
2022-11-16T11:33:59.949Z,93419.22
2022-11-16T11:36:43.178Z,93412.53
2022-11-16T11:39:12.522Z,93415.59
2022-11-16T11:41:45.018Z,93418.06
2022-11-16T11:44:20.570Z,93431.00
2022-11-16T11:49:52.337Z,93411.19
2022-11-16T11:52:34.721Z,93408.66
2022-11-16T11:55:03.493Z,93411.44
2022-11-16T11:57:33.420Z,93406.09
2022-11-16T12:00:02.117Z,93412.47
2022-11-16T12:02:39.941Z,93407.00
2022-11-16T12:05:51.461Z,93406.00
2022-11-16T12:08:45.323Z,93405.53
2022-11-16T12:11:22.100Z,93406.41
2022-11-16T12:14:00.922Z,93399.22
2022-11-16T12:16:39.463Z,93404.09
2022-11-16T12:19:15.324Z,93409.88
2022-11-16T12:22:13.379Z,93399.22
2022-11-16T12:25:01.996Z,93404.44
2022-11-16T12:28:08.787Z,93403.22
2022-11-16T12:31:01.329Z,93398.34
2022-11-16T12:33:53.112Z,93411.28
2022-11-16T12:36:38.809Z,93407.00
2022-11-16T12:40:10.645Z,93410.66
2022-11-16T12:42:42.230Z,93403.75
2022-11-16T12:45:18.529Z,93400.94
2022-11-16T12:48:10.432Z,93404.09
2022-11-16T12:51:31.858Z,93393.06
2022-11-16T12:54:29.325Z,93397.53
2022-11-16T12:57:32.843Z,93385.63
2022-11-16T13:00:17.020Z,93385.81
2022-11-16T13:03:13.692Z,93390.28
2022-11-16T13:05:45.402Z,93389.91
2022-11-16T13:08:57.680Z,93381.41
2022-11-16T13:11:31.077Z,93379.28
2022-11-16T13:14:05.971Z,93369.06
2022-11-16T13:16:32.783Z,93362.19
2022-11-16T13:19:04.328Z,93362.06
2022-11-16T13:22:02.854Z,93373.53
2022-11-16T13:24:38.331Z,93376.63
2022-11-16T13:27:27.369Z,93361.41
2022-11-16T13:30:09.032Z,93359.53
2022-11-16T13:33:04.416Z,93356.06
2022-11-16T13:35:31.464Z,93340.41
2022-11-16T13:37:58.220Z,93340.53
2022-11-16T13:40:31.783Z,93331.94
2022-11-16T13:43:04.346Z,93328.28
2022-11-16T13:45:40.667Z,93336.59
2022-11-16T13:48:22.463Z,93355.16
2022-11-16T13:51:03.534Z,93343.03
2022-11-16T13:56:28.357Z,93347.53
2022-11-16T13:58:57.397Z,93352.69
2022-11-16T14:01:24.317Z,93344.94
2022-11-16T14:03:52.749Z,93338.03
2022-11-16T14:06:19.401Z,93345.97
2022-11-16T14:08:50.260Z,93340.91
2022-11-16T14:11:36.090Z,93334.69
2022-11-16T14:14:12.180Z,93333.56
2022-11-16T14:16:47.567Z,93339.53
2022-11-16T14:19:49.357Z,93341.88
2022-11-16T14:22:34.651Z,93335.19
2022-11-16T14:25:08.220Z,93333.56
2022-11-16T14:27:55.633Z,93328.47
2022-11-16T14:30:31.395Z,93338.38
2022-11-16T14:32:58.878Z,93327.44
2022-11-16T14:35:39.585Z,93311.78
2022-11-16T14:38:30.899Z,93310.75
2022-11-16T14:41:00.220Z,93313.13
2022-11-16T14:43:39.707Z,93313.34
2022-11-16T14:46:17.863Z,93298.84
2022-11-16T14:48:46.359Z,93311.94
2022-11-16T14:51:21.667Z,93305.88
2022-11-16T14:53:53.905Z,93308.09
2022-11-16T14:56:20.907Z,93296.91
2022-11-16T14:58:56.725Z,93309.56
2022-11-16T15:01:31.865Z,93316.81
2022-11-16T15:04:09.403Z,93307.50
2022-11-16T15:06:44.780Z,93311.28
2022-11-16T15:09:34.354Z,93294.97
2022-11-16T15:12:22.904Z,93304.22
2022-11-16T15:14:58.034Z,93295.63
2022-11-16T15:17:31.860Z,93297.88
2022-11-16T15:20:11.063Z,93305.09
2022-11-16T15:22:42.426Z,93302.50
2022-11-16T15:25:41.274Z,93314.13
2022-11-16T15:28:26.221Z,93326.53
2022-11-16T15:30:59.017Z,93325.75
2022-11-16T15:33:38.656Z,93313.81
2022-11-16T15:36:39.132Z,93311.97
2022-11-16T15:39:12.618Z,93300.03
2022-11-16T15:41:40.041Z,93292.97
2022-11-16T15:44:14.651Z,93265.44
2022-11-16T15:46:45.370Z,93271.69
2022-11-16T15:49:29.217Z,93284.16
2022-11-16T15:51:58.707Z,93291.00
2022-11-16T15:54:51.501Z,93293.56
2022-11-16T15:57:20.355Z,93304.25
2022-11-16T15:59:55.613Z,93312.66
2022-11-16T16:02:27.761Z,93304.72
2022-11-16T16:04:54.510Z,93307.69
2022-11-16T16:07:42.473Z,93304.38
2022-11-16T16:10:23.532Z,93309.72
2022-11-16T16:12:57.956Z,93301.34
2022-11-16T16:15:34.285Z,93293.19
2022-11-16T16:18:03.513Z,93293.19
2022-11-16T16:20:32.275Z,93283.78
2022-11-16T16:23:11.863Z,93286.53
2022-11-16T16:25:38.643Z,93297.44
2022-11-16T16:28:05.447Z,93298.91
2022-11-16T16:30:34.726Z,93294.50
2022-11-16T16:33:02.351Z,93295.50
2022-11-16T16:35:29.284Z,93295.28
2022-11-16T16:38:01.385Z,93283.00
2022-11-16T16:40:29.305Z,93294.41
2022-11-16T16:42:56.988Z,93304.34
2022-11-16T16:45:34.719Z,93302.66
2022-11-16T16:48:01.445Z,93302.41
2022-11-16T16:50:29.003Z,93297.34
2022-11-16T16:52:55.740Z,93284.09
2022-11-16T16:55:22.453Z,93299.34
2022-11-16T16:57:49.201Z,93296.31
2022-11-16T17:00:16.857Z,93291.44
2022-11-16T17:02:43.828Z,93279.53
2022-11-16T17:05:10.632Z,93285.59
2022-11-16T17:07:37.422Z,93278.19
2022-11-16T17:10:04.722Z,93290.72
2022-11-16T17:12:31.432Z,93288.47
2022-11-16T17:14:58.297Z,93287.19
2022-11-16T17:17:25.072Z,93280.16
2022-11-16T17:19:52.427Z,93294.22
2022-11-16T17:22:20.998Z,93297.81
2022-11-16T17:24:47.811Z,93288.00
2022-11-16T17:27:14.549Z,93281.31
2022-11-16T17:29:41.279Z,93279.56
2022-11-16T17:32:08.163Z,93276.88
2022-11-16T17:34:34.882Z,93275.44
2022-11-16T17:37:01.694Z,93280.28
2022-11-16T17:39:28.439Z,93277.97
2022-11-16T17:41:55.333Z,93276.09
2022-11-16T17:44:22.452Z,93277.66
2022-11-16T17:46:49.760Z,93281.53
2022-11-16T17:49:16.536Z,93269.56
2022-11-16T17:51:43.231Z,93277.41
2022-11-16T17:54:10.043Z,93273.97
2022-11-16T17:56:36.810Z,93259.88
2022-11-16T17:59:03.864Z,93266.75
2022-11-16T18:01:31.546Z,93265.47
2022-11-16T18:04:01.132Z,93261.59
2022-11-16T18:06:27.885Z,93248.94
2022-11-16T18:08:54.775Z,93253.56
2022-11-16T18:11:24.971Z,93256.22
2022-11-16T18:13:57.944Z,93254.25
2022-11-16T18:16:30.206Z,93251.81
2022-11-16T18:19:06.009Z,93235.41
2022-11-16T18:21:39.664Z,93231.25
2022-11-16T18:24:07.334Z,93222.09
2022-11-16T18:26:34.160Z,93238.75
2022-11-16T18:29:00.923Z,93218.94
2022-11-16T18:31:27.679Z,93207.56
2022-11-16T18:33:54.412Z,93210.50
2022-11-16T18:36:22.866Z,93204.00
2022-11-16T18:38:49.935Z,93210.16
2022-11-16T18:41:19.610Z,93195.69
2022-11-16T18:43:56.045Z,93176.88
2022-11-16T18:46:31.027Z,93183.34
2022-11-16T18:48:58.510Z,93187.69
2022-11-16T18:51:27.664Z,93186.84
2022-11-16T18:53:55.439Z,93170.59
2022-11-16T18:56:22.979Z,93155.34
2022-11-16T18:58:51.224Z,93172.38
2022-11-16T19:01:22.355Z,93170.66
2022-11-16T19:03:49.607Z,93175.88
2022-11-16T19:06:18.014Z,93163.84
2022-11-16T19:08:50.493Z,93171.94
2022-11-16T19:11:20.722Z,93150.03
2022-11-16T19:13:54.437Z,93164.16
2022-11-16T19:16:22.064Z,93158.97
2022-11-16T19:18:48.905Z,93157.69
2022-11-16T19:21:18.767Z,93147.28
2022-11-16T19:23:48.486Z,93151.69
2022-11-16T19:26:18.752Z,93151.69
2022-11-16T19:28:48.176Z,93150.88
2022-11-16T19:31:20.264Z,93131.91
2022-11-16T19:33:47.436Z,93153.19
2022-11-16T19:36:17.401Z,93163.28
2022-11-16T19:38:47.416Z,93162.94
2022-11-16T19:41:16.632Z,93172.06
2022-11-16T19:43:43.542Z,93165.91
2022-11-16T19:46:16.603Z,93162.63
2022-11-16T19:48:45.845Z,93173.06
2022-11-16T19:51:19.461Z,93174.34
2022-11-16T19:53:46.569Z,93178.56
2022-11-16T19:56:16.361Z,93203.91
2022-11-16T19:58:43.584Z,93200.97
2022-11-16T20:01:17.556Z,93178.22
2022-11-16T20:03:45.973Z,93196.56
2022-11-16T20:06:22.577Z,93194.63
2022-11-16T20:09:00.494Z,93177.88
2022-11-16T20:11:33.780Z,93178.88
2022-11-16T20:14:01.941Z,93183.56
2022-11-16T20:16:38.362Z,93160.97
2022-11-16T20:19:10.448Z,93165.72
2022-11-16T20:21:42.215Z,93147.84
2022-11-16T20:24:14.767Z,93142.50
2022-11-16T20:26:45.060Z,93123.31
2022-11-16T20:29:16.560Z,93133.06
2022-11-16T20:31:45.421Z,93117.63
2022-11-16T20:34:17.186Z,93132.91
2022-11-16T20:36:46.833Z,93118.63
2022-11-16T20:39:19.167Z,93116.50
2022-11-16T20:41:46.907Z,93119.13
2022-11-16T20:44:22.345Z,93130.47
2022-11-16T20:46:52.267Z,93139.25
2022-11-16T20:49:19.096Z,93142.50
2022-11-16T20:51:47.738Z,93133.25
2022-11-16T20:54:14.779Z,93132.59
2022-11-16T20:56:41.589Z,93108.56
2022-11-16T20:59:08.306Z,93116.16
2022-11-16T21:01:35.191Z,93116.66
2022-11-16T21:04:04.918Z,93116.81
2022-11-16T21:06:32.839Z,93121.72
2022-11-16T21:09:00.380Z,93116.81
2022-11-16T21:11:30.642Z,93098.78
2022-11-16T21:14:16.079Z,93113.56
2022-11-16T21:16:43.465Z,93101.53
2022-11-16T21:19:11.549Z,93114.22
2022-11-16T21:21:40.494Z,93104.63
2022-11-16T21:24:09.119Z,93112.91
2022-11-16T21:26:37.367Z,93107.88
2022-11-16T21:29:04.751Z,93110.31
2022-11-16T21:31:34.968Z,93089.84
2022-11-16T21:34:02.498Z,93101.06
2022-11-16T21:36:31.819Z,93105.44
2022-11-16T21:38:58.715Z,93094.75
2022-11-16T21:41:26.632Z,93102.22
2022-11-16T21:43:53.685Z,93104.00
2022-11-16T21:46:24.956Z,93112.63
2022-11-16T21:48:53.863Z,93092.47
2022-11-16T21:51:22.871Z,93105.47
2022-11-16T21:53:49.631Z,93098.00
2022-11-16T21:56:19.361Z,93104.00
2022-11-16T21:58:46.684Z,93103.84
2022-11-16T22:01:16.282Z,93090.84
2022-11-16T22:03:43.343Z,93092.47
2022-11-16T22:06:33.296Z,93090.84
2022-11-16T22:09:00.676Z,93097.50
2022-11-16T22:11:27.540Z,93095.72
2022-11-16T22:13:54.245Z,93100.28
2022-11-16T22:16:23.454Z,93081.75
2022-11-16T22:18:50.756Z,93086.94
2022-11-16T22:21:17.600Z,93090.03
2022-11-16T22:23:44.399Z,93080.44
2022-11-16T22:26:14.662Z,93076.41
2022-11-16T22:28:41.641Z,93072.84
2022-11-16T22:31:14.726Z,93073.66
2022-11-16T22:33:42.065Z,93059.53
2022-11-16T22:36:13.393Z,93058.06
2022-11-16T22:38:40.164Z,93072.00
2022-11-16T22:41:06.908Z,93063.56
2022-11-16T22:43:34.327Z,93057.88
2022-11-16T22:46:04.545Z,93052.88
2022-11-16T22:48:38.203Z,93066.00
2022-11-16T22:51:20.573Z,93040.69
2022-11-16T22:53:47.340Z,93034.34
2022-11-16T22:56:14.381Z,93055.44
2022-11-16T22:58:41.174Z,93049.25
2022-11-16T23:01:09.380Z,93060.00
2022-11-16T23:03:37.562Z,93057.38
2022-11-16T23:06:06.156Z,93072.66
2022-11-16T23:08:34.072Z,93063.38
2022-11-16T23:11:25.453Z,93055.13
2022-11-16T23:14:12.992Z,93027.47
2022-11-16T23:16:41.164Z,93050.84
2022-11-16T23:19:33.046Z,93041.75
2022-11-16T23:22:18.266Z,93003.44
2022-11-16T23:25:04.393Z,93026.31
2022-11-16T23:27:49.045Z,93046.63
2022-11-16T23:30:16.084Z,93025.16
2022-11-16T23:32:42.964Z,93010.84
2022-11-16T23:35:10.481Z,93012.94
2022-11-16T23:38:06.217Z,92997.34
2022-11-16T23:40:40.334Z,92997.03
2022-11-16T23:43:28.951Z,93017.16
2022-11-16T23:45:55.763Z,92989.72
2022-11-16T23:48:22.530Z,93005.44
2022-11-16T23:50:49.248Z,93010.78
2022-11-16T23:53:15.994Z,93015.31
2022-11-16T23:55:42.765Z,93010.78
2022-11-16T23:58:14.642Z,93010.75
